createdAt,value
2022-08-01T00:01:42.356Z,15.15
2022-08-01T00:04:11.155Z,15.12
2022-08-01T00:06:40.067Z,15.09
2022-08-01T00:09:08.986Z,15.05
2022-08-01T00:11:37.904Z,14.97
2022-08-01T00:14:07.302Z,14.92
2022-08-01T00:16:37.641Z,14.87
2022-08-01T00:19:06.498Z,14.84
2022-08-01T00:21:35.258Z,14.81
2022-08-01T00:24:04.200Z,14.78
2022-08-01T00:26:33.059Z,14.78
2022-08-01T00:29:02.843Z,14.80
2022-08-01T00:31:40.583Z,14.80
2022-08-01T00:34:09.484Z,14.81
2022-08-01T00:36:38.260Z,14.79
2022-08-01T00:39:07.059Z,14.71
2022-08-01T00:41:36.483Z,14.62
2022-08-01T00:44:08.272Z,14.54
2022-08-01T00:46:37.127Z,14.50
2022-08-01T00:49:06.404Z,14.46
2022-08-01T00:51:40.356Z,14.44
2022-08-01T00:54:09.499Z,14.43
2022-08-01T00:56:42.457Z,14.45
2022-08-01T00:59:14.005Z,14.47
2022-08-01T01:01:46.473Z,14.51
2022-08-01T01:04:16.807Z,14.54
2022-08-01T01:07:23.379Z,14.57
2022-08-01T01:10:05.953Z,14.57
2022-08-01T01:12:52.937Z,14.55
2022-08-01T01:15:42.749Z,14.55
2022-08-01T01:18:21.634Z,14.55
2022-08-01T01:21:05.134Z,14.53
2022-08-01T01:24:32.547Z,14.52
2022-08-01T01:27:09.973Z,14.50
2022-08-01T01:29:59.278Z,14.47
2022-08-01T01:32:49.189Z,14.43
2022-08-01T01:35:35.149Z,14.37
2022-08-01T01:38:16.157Z,14.31
2022-08-01T01:40:46.643Z,14.25
2022-08-01T01:43:17.144Z,14.25
2022-08-01T01:45:48.480Z,14.24
2022-08-01T01:48:23.373Z,14.20
2022-08-01T01:50:53.884Z,14.14
2022-08-01T01:53:24.452Z,14.09
2022-08-01T01:55:56.875Z,14.04
2022-08-01T01:58:28.564Z,14.03
2022-08-01T02:01:02.839Z,14.01
2022-08-01T02:03:33.310Z,14.01
2022-08-01T02:06:03.031Z,14.02
2022-08-01T02:08:34.062Z,14.05
2022-08-01T02:11:19.834Z,14.08
2022-08-01T02:14:02.045Z,14.10
2022-08-01T02:16:37.911Z,14.12
2022-08-01T02:19:07.035Z,14.15
2022-08-01T02:21:52.927Z,14.18
2022-08-01T02:25:03.746Z,14.19
2022-08-01T02:27:45.007Z,14.20
2022-08-01T02:30:15.636Z,14.18
2022-08-01T02:32:51.106Z,14.16
2022-08-01T02:35:34.815Z,14.14
2022-08-01T02:38:27.863Z,14.10
2022-08-01T02:41:01.104Z,14.07
2022-08-01T02:43:33.903Z,14.07
2022-08-01T02:46:05.825Z,14.06
2022-08-01T02:48:38.047Z,14.04
2022-08-01T02:51:09.424Z,14.03
2022-08-01T02:53:44.586Z,14.03
2022-08-01T02:56:16.423Z,14.04
2022-08-01T02:58:47.050Z,14.06
2022-08-01T03:01:19.414Z,14.10
2022-08-01T03:03:49.317Z,14.13
2022-08-01T03:06:19.058Z,14.16
2022-08-01T03:08:49.797Z,14.18
2022-08-01T03:11:20.138Z,14.19
2022-08-01T03:13:51.351Z,14.19
2022-08-01T03:16:22.774Z,14.18
2022-08-01T03:18:57.916Z,14.16
2022-08-01T03:21:28.916Z,14.13
2022-08-01T03:24:00.785Z,14.09
2022-08-01T03:26:33.234Z,14.06
2022-08-01T03:29:15.427Z,14.03
2022-08-01T03:31:47.313Z,14.01
2022-08-01T03:34:17.819Z,13.98
2022-08-01T03:36:56.932Z,13.94
2022-08-01T03:39:33.326Z,13.92
2022-08-01T03:42:13.979Z,13.91
2022-08-01T03:44:53.853Z,13.87
2022-08-01T03:47:30.276Z,13.84
2022-08-01T03:50:01.746Z,13.83
2022-08-01T03:52:33.513Z,13.83
2022-08-01T03:55:08.212Z,13.83
2022-08-01T03:57:37.652Z,13.78
2022-08-01T04:00:09.830Z,13.84
2022-08-01T04:02:43.213Z,13.95
2022-08-01T04:05:12.316Z,14.03
2022-08-01T04:07:44.085Z,14.11
2022-08-01T04:10:12.704Z,14.20
2022-08-01T04:12:41.575Z,14.23
2022-08-01T04:15:10.681Z,14.32
2022-08-01T04:17:39.410Z,14.46
2022-08-01T04:20:09.106Z,14.59
2022-08-01T04:22:37.996Z,14.70
2022-08-01T04:25:36.773Z,14.82
2022-08-01T04:28:08.671Z,14.94
2022-08-01T04:30:40.570Z,15.04
2022-08-01T04:33:10.658Z,15.17
2022-08-01T04:36:02.462Z,15.32
2022-08-01T04:38:34.575Z,15.45
2022-08-01T04:41:09.344Z,15.59
2022-08-01T04:43:39.602Z,15.72
2022-08-01T04:46:09.389Z,15.85
2022-08-01T04:48:40.852Z,16.01
2022-08-01T04:51:17.709Z,16.15
2022-08-01T04:53:49.679Z,16.31
2022-08-01T04:56:21.949Z,16.45
2022-08-01T04:59:13.850Z,16.61
2022-08-01T05:01:51.824Z,16.73
2022-08-01T05:04:20.650Z,16.83
2022-08-01T05:06:50.907Z,16.90
2022-08-01T05:09:19.715Z,17.03
2022-08-01T05:11:48.429Z,17.15
2022-08-01T05:14:17.191Z,17.26
2022-08-01T05:16:46.840Z,17.36
2022-08-01T05:19:15.706Z,17.43
2022-08-01T05:21:44.651Z,17.51
2022-08-01T05:24:14.080Z,17.58
2022-08-01T05:26:43.041Z,17.63
2022-08-01T05:29:11.944Z,17.65
2022-08-01T05:31:40.748Z,17.64
2022-08-01T05:34:15.269Z,17.64
2022-08-01T05:36:44.746Z,17.63
2022-08-01T05:39:15.294Z,17.59
2022-08-01T05:41:44.247Z,17.53
2022-08-01T05:44:13.133Z,17.48
2022-08-01T05:46:41.910Z,17.46
2022-08-01T05:49:10.754Z,17.44
2022-08-01T05:51:39.701Z,17.43
2022-08-01T05:54:08.556Z,17.44
2022-08-01T05:56:37.562Z,17.48
2022-08-01T05:59:06.999Z,17.59
2022-08-01T06:01:35.854Z,17.73
2022-08-01T06:04:05.133Z,17.89
2022-08-01T06:06:33.951Z,18.14
2022-08-01T06:09:02.739Z,18.50
2022-08-01T06:11:31.573Z,18.86
2022-08-01T06:14:00.331Z,19.07
2022-08-01T06:16:29.090Z,19.19
2022-08-01T06:18:57.918Z,19.26
2022-08-01T06:21:26.889Z,19.29
2022-08-01T06:23:55.706Z,19.30
2022-08-01T06:26:25.451Z,19.32
2022-08-01T06:28:54.228Z,19.37
2022-08-01T06:31:23.140Z,19.45
2022-08-01T06:33:51.932Z,19.54
2022-08-01T06:36:21.166Z,19.58
2022-08-01T06:38:50.196Z,19.61
2022-08-01T06:41:19.016Z,19.63
2022-08-01T06:43:47.814Z,19.61
2022-08-01T06:46:16.983Z,19.61
2022-08-01T06:48:45.864Z,19.62
2022-08-01T06:51:17.924Z,19.59
2022-08-01T06:53:46.786Z,19.61
2022-08-01T06:56:15.576Z,19.67
2022-08-01T06:58:44.584Z,19.74
2022-08-01T07:01:13.987Z,19.81
2022-08-01T07:03:53.077Z,19.85
2022-08-01T07:06:25.551Z,19.86
2022-08-01T07:08:54.405Z,19.86
2022-08-01T07:11:25.176Z,19.89
2022-08-01T07:13:54.033Z,19.97
2022-08-01T07:16:23.214Z,20.11
2022-08-01T07:18:52.498Z,20.18
2022-08-01T07:21:39.029Z,20.26
2022-08-01T07:24:14.546Z,20.33
2022-08-01T07:26:52.395Z,20.43
2022-08-01T07:29:26.680Z,20.51
2022-08-01T07:31:58.208Z,20.61
2022-08-01T07:34:27.065Z,20.66
2022-08-01T07:36:55.971Z,20.63
2022-08-01T07:39:24.743Z,20.64
2022-08-01T07:42:07.167Z,20.66
2022-08-01T07:44:38.082Z,20.73
2022-08-01T07:47:07.326Z,20.83
2022-08-01T07:49:40.386Z,20.85
2022-08-01T07:52:10.346Z,20.81
2022-08-01T07:54:39.296Z,20.78
2022-08-01T07:57:08.356Z,20.77
2022-08-01T07:59:37.226Z,20.81
2022-08-01T08:02:06.379Z,20.86
2022-08-01T08:04:35.491Z,20.93
2022-08-01T08:07:04.588Z,21.06
2022-08-01T08:09:37.294Z,21.24
2022-08-01T08:12:07.870Z,21.41
2022-08-01T08:14:37.742Z,21.56
2022-08-01T08:17:07.943Z,21.66
2022-08-01T08:19:39.273Z,21.65
2022-08-01T08:22:09.258Z,21.66
2022-08-01T08:24:45.570Z,21.66
2022-08-01T08:27:16.313Z,21.72
2022-08-01T08:29:45.317Z,21.82
2022-08-01T08:32:14.256Z,21.86
2022-08-01T08:34:43.167Z,21.94
2022-08-01T08:37:14.991Z,22.01
2022-08-01T08:39:45.233Z,22.02
2022-08-01T08:42:14.253Z,22.08
2022-08-01T08:44:44.347Z,22.15
2022-08-01T08:47:19.906Z,22.25
2022-08-01T08:49:58.240Z,22.37
2022-08-01T08:52:27.911Z,22.51
2022-08-01T08:54:57.587Z,22.58
2022-08-01T08:57:26.384Z,22.63
2022-08-01T08:59:56.373Z,22.68
2022-08-01T09:02:25.112Z,22.65
2022-08-01T09:04:54.186Z,22.60
2022-08-01T09:07:23.939Z,22.58
2022-08-01T09:09:53.214Z,22.54
2022-08-01T09:12:22.611Z,22.50
2022-08-01T09:14:54.603Z,22.49
2022-08-01T09:17:24.508Z,22.54
2022-08-01T09:19:57.825Z,22.57
2022-08-01T09:22:34.709Z,22.61
2022-08-01T09:25:07.383Z,22.66
2022-08-01T09:27:44.236Z,22.68
2022-08-01T09:30:23.955Z,22.72
2022-08-01T09:33:06.154Z,22.78
2022-08-01T09:35:45.440Z,22.82
2022-08-01T09:38:23.869Z,22.93
2022-08-01T09:41:02.104Z,23.19
2022-08-01T09:43:32.773Z,23.65
2022-08-01T09:46:14.029Z,24.11
2022-08-01T09:49:07.226Z,24.37
2022-08-01T09:51:59.996Z,24.52
2022-08-01T09:54:34.940Z,24.67
2022-08-01T09:57:19.724Z,24.78
2022-08-01T09:59:59.955Z,24.83
2022-08-01T10:02:36.526Z,24.90
2022-08-01T10:05:10.456Z,24.85
2022-08-01T10:08:00.567Z,24.78
2022-08-01T10:10:31.622Z,24.80
2022-08-01T10:13:00.597Z,24.91
2022-08-01T10:15:36.965Z,24.96
2022-08-01T10:18:25.251Z,25.00
2022-08-01T10:20:56.719Z,25.08
2022-08-01T10:23:39.848Z,25.11
2022-08-01T10:26:11.768Z,25.10
2022-08-01T10:28:45.788Z,25.09
2022-08-01T10:31:15.439Z,25.20
2022-08-01T10:33:51.750Z,25.32
2022-08-01T10:36:25.230Z,25.32
2022-08-01T10:38:56.835Z,25.31
2022-08-01T10:41:27.481Z,25.37
2022-08-01T10:43:57.979Z,25.52
2022-08-01T10:46:27.117Z,25.64
2022-08-01T10:49:18.022Z,25.74
2022-08-01T10:51:51.317Z,25.83
2022-08-01T10:54:25.872Z,25.91
2022-08-01T10:56:56.830Z,26.01
2022-08-01T10:59:51.167Z,26.13
2022-08-01T11:02:34.218Z,26.28
2022-08-01T11:10:15.162Z,26.52
2022-08-01T11:13:25.670Z,26.56
2022-08-01T11:19:21.438Z,26.66
2022-08-01T11:22:01.172Z,26.69
2022-08-01T11:25:20.083Z,26.79
2022-08-01T11:28:32.070Z,26.88
2022-08-01T11:31:44.322Z,26.90
2022-08-01T11:35:18.478Z,26.94
2022-08-01T11:38:44.031Z,26.92
2022-08-01T11:41:39.455Z,26.93
2022-08-01T11:44:30.472Z,26.93
2022-08-01T11:47:13.339Z,26.98
2022-08-01T11:49:49.760Z,27.06
2022-08-01T11:52:26.067Z,27.10
2022-08-01T11:55:10.459Z,27.14
2022-08-01T11:57:41.651Z,27.09
2022-08-01T12:00:23.463Z,26.99
2022-08-01T12:03:36.668Z,26.92
2022-08-01T12:10:49.655Z,26.90
2022-08-01T12:13:52.819Z,26.93
2022-08-01T12:17:01.670Z,26.88
2022-08-01T12:19:30.851Z,26.78
2022-08-01T12:22:19.203Z,26.78
2022-08-01T12:24:48.692Z,26.81
2022-08-01T12:27:32.015Z,26.81
2022-08-01T12:30:13.160Z,26.79
2022-08-01T12:32:50.045Z,26.82
2022-08-01T12:35:25.829Z,26.84
2022-08-01T12:38:07.343Z,26.81
2022-08-01T12:40:52.352Z,26.83
2022-08-01T12:43:29.472Z,26.83
2022-08-01T12:46:02.147Z,26.75
2022-08-01T12:48:39.471Z,26.69
2022-08-01T12:51:29.354Z,26.67
2022-08-01T12:54:13.101Z,26.67
2022-08-01T12:56:46.564Z,26.69
2022-08-01T12:59:26.425Z,26.67
2022-08-01T13:01:59.463Z,26.65
2022-08-01T13:04:31.370Z,26.65
2022-08-01T13:07:45.607Z,26.66
2022-08-01T13:11:24.779Z,26.66
2022-08-01T13:14:55.300Z,26.59
2022-08-01T13:17:53.916Z,26.61
2022-08-01T13:20:36.785Z,26.63
2022-08-01T13:27:35.457Z,26.57
2022-08-01T13:53:32.351Z,26.63
2022-08-01T13:56:03.028Z,26.59
2022-08-01T13:58:47.152Z,26.53
2022-08-01T14:01:18.125Z,26.47
2022-08-01T14:03:52.528Z,26.40
2022-08-01T14:06:25.006Z,26.33
2022-08-01T14:08:57.571Z,26.25
2022-08-01T14:11:30.321Z,26.19
2022-08-01T14:14:08.409Z,26.14
2022-08-01T14:16:38.784Z,26.09
2022-08-01T14:19:08.297Z,26.05
2022-08-01T14:21:38.221Z,26.01
2022-08-01T14:24:08.645Z,25.98
2022-08-01T14:26:38.232Z,25.96
2022-08-01T14:29:16.744Z,25.93
2022-08-01T14:38:48.339Z,25.35
2022-08-01T14:42:58.616Z,24.93
2022-08-01T14:46:11.191Z,24.29
2022-08-01T14:48:46.258Z,24.03
2022-08-01T14:51:18.441Z,23.88
2022-08-01T14:53:50.978Z,23.69
2022-08-01T14:56:22.387Z,23.49
2022-08-01T14:59:02.909Z,23.30
2022-08-01T15:01:32.819Z,23.16
2022-08-01T15:04:02.221Z,23.06
2022-08-01T15:06:34.076Z,22.98
2022-08-01T15:09:03.319Z,22.92
2022-08-01T15:11:38.452Z,22.83
2022-08-01T15:14:26.338Z,22.76
2022-08-01T15:17:10.875Z,22.68
2022-08-01T15:22:54.246Z,22.56
2022-08-01T15:29:21.157Z,22.44
2022-08-01T15:31:53.619Z,22.44
2022-08-01T15:38:20.943Z,22.45
2022-08-01T15:41:14.541Z,22.46
2022-08-01T15:43:58.654Z,22.48
2022-08-01T15:46:57.738Z,22.49
2022-08-01T15:49:46.659Z,22.47
2022-08-01T15:52:23.178Z,22.48
2022-08-01T15:55:00.189Z,22.48
2022-08-01T15:57:29.759Z,22.49
2022-08-01T15:59:58.945Z,22.50
2022-08-01T16:02:44.166Z,22.51
2022-08-01T16:05:53.328Z,22.46
2022-08-01T16:08:44.382Z,22.31
2022-08-01T16:11:26.786Z,22.26
2022-08-01T16:14:15.851Z,22.19
2022-08-01T16:16:45.296Z,22.16
2022-08-01T16:19:33.453Z,22.18
2022-08-01T16:22:09.155Z,22.19
2022-08-01T16:24:57.777Z,22.20
2022-08-01T16:27:47.952Z,22.21
2022-08-01T16:30:36.767Z,22.26
2022-08-01T16:33:47.673Z,22.31
2022-08-01T16:36:15.921Z,22.33
2022-08-01T16:39:08.947Z,22.37
2022-08-01T16:41:55.302Z,22.40
2022-08-01T16:44:33.428Z,22.44
2022-08-01T16:47:05.440Z,22.48
2022-08-01T16:49:37.218Z,22.50
2022-08-01T16:52:10.625Z,22.42
2022-08-01T16:54:51.552Z,22.39
2022-08-01T16:57:28.855Z,22.37
2022-08-01T17:00:00.690Z,22.34
2022-08-01T17:02:34.360Z,22.33
2022-08-01T17:05:12.891Z,22.35
2022-08-01T17:07:42.237Z,22.38
2022-08-01T17:10:12.133Z,22.40
2022-08-01T17:12:43.610Z,22.39
2022-08-01T17:15:15.685Z,22.38
2022-08-01T17:17:54.950Z,22.40
2022-08-01T17:20:38.585Z,22.41
2022-08-01T17:24:19.649Z,22.42
2022-08-01T17:31:23.006Z,22.39
2022-08-01T17:34:39.721Z,22.37
2022-08-01T17:37:58.623Z,22.31
2022-08-01T17:41:24.112Z,22.25
2022-08-01T17:44:18.528Z,22.23
2022-08-01T17:47:50.345Z,22.26
2022-08-01T17:51:31.968Z,22.26
2022-08-01T17:54:46.619Z,22.25
2022-08-01T17:57:49.270Z,22.26
2022-08-01T18:01:07.820Z,22.28
2022-08-01T18:04:12.989Z,22.27
2022-08-01T18:07:16.319Z,22.25
2022-08-01T18:10:56.275Z,22.23
2022-08-01T18:13:20.526Z,22.22
2022-08-01T18:16:14.406Z,22.21
2022-08-01T18:18:45.960Z,22.20
2022-08-01T18:21:27.797Z,22.19
2022-08-01T18:24:52.018Z,22.17
2022-08-01T18:28:29.990Z,22.11
2022-08-01T18:31:08.902Z,22.04
2022-08-01T18:35:14.082Z,22.00
2022-08-01T18:44:32.425Z,21.86
2022-08-01T18:47:01.409Z,21.86
2022-08-01T18:49:34.713Z,21.87
2022-08-01T18:52:08.278Z,21.78
2022-08-01T18:54:45.456Z,21.77
2022-08-01T19:02:32.596Z,21.66
2022-08-01T19:05:01.884Z,21.63
2022-08-01T19:08:04.366Z,21.63
2022-08-01T19:10:19.595Z,21.62
2022-08-01T19:12:48.374Z,21.62
2022-08-01T19:15:20.296Z,21.61
2022-08-01T19:17:49.048Z,21.60
2022-08-01T19:20:18.023Z,21.58
2022-08-01T19:22:46.842Z,21.57
2022-08-01T19:25:15.945Z,21.57
2022-08-01T19:27:48.615Z,21.57
2022-08-01T19:30:19.305Z,21.55
2022-08-01T19:32:49.128Z,21.54
2022-08-01T19:35:18.130Z,21.53
2022-08-01T19:37:49.062Z,21.52
2022-08-01T19:40:26.761Z,21.52
2022-08-01T19:42:57.553Z,21.49
2022-08-01T19:45:30.030Z,21.48
2022-08-01T19:47:59.404Z,21.46
2022-08-01T19:50:29.618Z,21.47
2022-08-01T19:53:02.666Z,21.46
2022-08-01T19:55:37.586Z,21.45
2022-08-01T20:00:57.732Z,21.43
2022-08-01T20:03:28.407Z,21.42
2022-08-01T20:05:57.679Z,21.40
2022-08-01T20:08:27.352Z,21.36
2022-08-01T20:11:00.887Z,21.33
2022-08-01T20:13:36.718Z,21.27
2022-08-01T20:16:09.136Z,21.22
2022-08-01T20:18:40.240Z,21.18
2022-08-01T20:21:14.706Z,21.15
2022-08-01T20:23:46.558Z,21.10
2022-08-01T20:26:17.931Z,21.05
2022-08-01T20:28:48.153Z,21.04
2022-08-01T20:31:18.158Z,20.95
2022-08-01T20:33:49.704Z,20.92
2022-08-01T20:36:24.798Z,20.92
2022-08-01T20:38:57.599Z,20.90
2022-08-01T20:41:28.182Z,20.88
2022-08-01T20:43:59.582Z,20.87
2022-08-01T20:46:29.858Z,20.85
2022-08-01T20:48:59.140Z,20.83
2022-08-01T20:51:29.588Z,20.82
2022-08-01T20:53:58.862Z,20.80
2022-08-01T20:56:46.896Z,20.78
2022-08-01T20:59:57.544Z,20.75
2022-08-01T21:02:51.664Z,20.70
2022-08-01T21:05:58.702Z,20.67
2022-08-01T21:08:45.524Z,20.64
2022-08-01T21:11:21.318Z,20.63
2022-08-01T21:13:51.385Z,20.62
2022-08-01T21:16:30.298Z,20.61
2022-08-01T21:19:20.018Z,20.57
2022-08-01T21:22:14.883Z,20.54
2022-08-01T21:24:58.985Z,20.51
2022-08-01T21:27:33.035Z,20.51
2022-08-01T21:30:09.275Z,20.51
2022-08-01T21:32:40.685Z,20.51
2022-08-01T21:35:16.793Z,20.52
2022-08-01T21:37:52.305Z,20.44
2022-08-01T21:40:24.373Z,20.43
2022-08-01T21:42:54.777Z,20.45
2022-08-01T21:45:27.273Z,20.43
2022-08-01T21:47:58.439Z,20.47
2022-08-01T21:50:29.076Z,20.50
2022-08-01T21:53:15.121Z,20.53
2022-08-01T21:56:14.601Z,20.55
2022-08-01T21:59:52.302Z,20.55
2022-08-01T22:02:39.327Z,20.55
2022-08-01T22:05:13.777Z,20.56
2022-08-01T22:07:48.570Z,20.59
2022-08-01T22:10:19.786Z,20.61
2022-08-01T22:12:48.680Z,20.63
2022-08-01T22:15:20.299Z,20.65
2022-08-01T22:17:53.391Z,20.66
2022-08-01T22:20:25.119Z,20.66
2022-08-01T22:22:57.598Z,20.65
2022-08-01T22:25:29.430Z,20.66
2022-08-01T22:28:03.221Z,20.66
2022-08-01T22:30:42.648Z,20.67
2022-08-01T22:33:16.575Z,20.67
2022-08-01T22:35:50.984Z,20.67
2022-08-01T22:38:25.411Z,20.68
2022-08-01T22:41:09.730Z,20.69
2022-08-01T22:44:02.942Z,20.67
2022-08-01T22:46:55.960Z,20.64
2022-08-01T22:50:03.677Z,20.63
2022-08-01T22:52:44.717Z,20.59
2022-08-01T22:55:20.591Z,20.59
2022-08-01T22:58:03.512Z,20.59
2022-08-01T23:00:35.738Z,20.58
2022-08-01T23:03:16.197Z,20.55
2022-08-01T23:06:12.277Z,20.51
2022-08-01T23:08:41.549Z,20.46
2022-08-01T23:11:11.461Z,20.45
2022-08-01T23:13:41.241Z,20.45
2022-08-01T23:16:14.422Z,20.47
2022-08-01T23:18:46.704Z,20.47
2022-08-01T23:21:16.973Z,20.46
2022-08-01T23:23:47.277Z,20.47
2022-08-01T23:26:17.135Z,20.47
2022-08-01T23:28:46.428Z,20.47
2022-08-01T23:31:16.648Z,20.46
2022-08-01T23:33:45.429Z,20.43
2022-08-01T23:36:17.522Z,20.41
2022-08-01T23:38:46.401Z,20.37
2022-08-01T23:41:15.147Z,20.35
2022-08-01T23:43:51.962Z,20.35
2022-08-01T23:46:21.416Z,20.34
2022-08-01T23:48:50.196Z,20.33
2022-08-01T23:51:24.779Z,20.31
2022-08-01T23:53:54.055Z,20.30
2022-08-01T23:56:25.368Z,20.30
2022-08-01T23:58:54.469Z,20.28
